Time;durP1;ratioP1;P1;durP2;ratioP2;P2;SDS_P1;SDS_P2;PMS_P1;PMS_P2;Temp;Humidity;BMP_temperature;BMP_pressure;BME280_temperature;BME280_humidity;BME280_pressure;Samples;Min_cycle;Max_cycle;Signal;HPM_P1;HPM_P2
2021/10/06 00:02:14;;;;;;;0.47;0.47;;;;;;;;;;5035178;28;20109;-52
2021/10/06 00:04:40;;;;;;;3.58;0.50;;;;;;;;;;5034313;28;20057;-52
2021/10/06 00:07:06;;;;;;;0.90;0.63;;;;;;;;;;5034857;28;20081;-52
2021/10/06 00:09:32;;;;;;;0.82;0.50;;;;;;;;;;5035298;28;20024;-53
2021/10/06 00:11:58;;;;;;;2.30;0.68;;;;;;;;;;5034771;28;20351;-52
2021/10/06 00:14:24;;;;;;;2.80;1.00;;;;;;;;;;5034291;28;20040;-52
2021/10/06 00:16:53;;;;;;;0.88;0.70;;;;;;;;;;5034936;28;20018;-52
2021/10/06 00:19:20;;;;;;;3.97;0.60;;;;;;;;;;5034525;28;20120;-52
2021/10/06 00:21:46;;;;;;;5.60;0.98;;;;;;;;;;5035182;28;20025;-52
2021/10/06 00:24:12;;;;;;;0.60;0.60;;;;;;;;;;5033993;28;20026;-53
2021/10/06 00:26:38;;;;;;;1.45;1.02;;;;;;;;;;5034514;28;20017;-52
2021/10/06 00:29:05;;;;;;;2.65;0.50;;;;;;;;;;5034452;28;20116;-52
2021/10/06 00:31:32;;;;;;;3.78;0.80;;;;;;;;;;5032494;28;20029;-52
2021/10/06 00:33:58;;;;;;;2.47;0.70;;;;;;;;;;5033415;28;20041;-52
2021/10/06 00:36:24;;;;;;;1.55;0.70;;;;;;;;;;5034377;28;20515;-53
2021/10/06 00:38:50;;;;;;;5.40;1.27;;;;;;;;;;5034546;28;20033;-52
2021/10/06 00:41:16;;;;;;;4.32;0.57;;;;;;;;;;5034206;28;20048;-52
2021/10/06 00:43:42;;;;;;;0.80;0.80;;;;;;;;;;5032236;28;20090;-52
2021/10/06 00:46:08;;;;;;;1.50;0.73;;;;;;;;;;5034359;28;20029;-52
2021/10/06 00:48:34;;;;;;;4.50;0.73;;;;;;;;;;5034701;28;20471;-52
2021/10/06 00:51:00;;;;;;;0.50;0.50;;;;;;;;;;5034137;28;20403;-52
2021/10/06 00:53:26;;;;;;;1.30;0.57;;;;;;;;;;5033679;28;20064;-52
2021/10/06 00:55:52;;;;;;;0.93;0.70;;;;;;;;;;5033712;28;20024;-52
2021/10/06 00:58:18;;;;;;;0.50;0.50;;;;;;;;;;5033714;28;20359;-52
2021/10/06 01:00:44;;;;;;;0.95;0.55;;;;;;;;;;5033868;28;20029;-52
2021/10/06 01:03:10;;;;;;;0.68;0.50;;;;;;;;;;5032682;28;20337;-52
2021/10/06 01:05:37;;;;;;;1.20;0.60;;;;;;;;;;5033398;28;20032;-52
2021/10/06 01:08:04;;;;;;;0.70;0.52;;;;;;;;;;5034086;28;20032;-52
2021/10/06 01:10:30;;;;;;;2.15;0.50;;;;;;;;;;5033746;28;20486;-52
2021/10/06 01:12:56;;;;;;;0.45;0.45;;;;;;;;;;5033548;28;20029;-53
2021/10/06 01:15:22;;;;;;;0.85;0.45;;;;;;;;;;5032973;28;20040;-52
2021/10/06 01:17:48;;;;;;;0.63;0.50;;;;;;;;;;5033918;28;20029;-52
2021/10/06 01:20:15;;;;;;;5.32;0.68;;;;;;;;;;5033631;28;20033;-53
2021/10/06 01:22:41;;;;;;;0.80;0.80;;;;;;;;;;5033692;28;20104;-52
2021/10/06 01:25:08;;;;;;;0.85;0.70;;;;;;;;;;5033038;28;20119;-52
2021/10/06 01:27:38;;;;;;;1.38;0.73;;;;;;;;;;5033300;28;20024;-52
2021/10/06 01:30:05;;;;;;;0.60;0.60;;;;;;;;;;5033495;28;20443;-53
2021/10/06 01:32:34;;;;;;;1.30;0.57;;;;;;;;;;5033597;28;20053;-52
2021/10/06 01:35:01;;;;;;;0.47;0.40;;;;;;;;;;5032717;28;20049;-52
2021/10/06 01:37:27;;;;;;;0.70;0.70;;;;;;;;;;5033335;28;20028;-52
2021/10/06 01:39:53;;;;;;;0.82;0.40;;;;;;;;;;5033587;28;20112;-52
2021/10/06 01:42:19;;;;;;;1.67;0.47;;;;;;;;;;5031391;28;20041;-52
2021/10/06 01:44:46;;;;;;;1.02;0.63;;;;;;;;;;5032568;28;20017;-52
2021/10/06 01:47:22;;;;;;;0.50;0.50;;;;;;;;;;5033241;28;20028;-53
2021/10/06 01:49:49;;;;;;;1.40;0.88;;;;;;;;;;5033603;28;20098;-52
2021/10/06 01:52:19;;;;;;;0.60;0.60;;;;;;;;;;5032733;28;20021;-53
2021/10/06 01:54:45;;;;;;;0.98;0.52;;;;;;;;;;5031953;28;20045;-52
2021/10/06 01:57:11;;;;;;;0.55;0.55;;;;;;;;;;5033238;28;20025;-52
2021/10/06 01:59:37;;;;;;;1.00;0.60;;;;;;;;;;5033259;28;20044;-52
2021/10/06 02:02:03;;;;;;;0.93;0.52;;;;;;;;;;5033043;28;20133;-52
2021/10/06 02:04:29;;;;;;;0.80;0.70;;;;;;;;;;5032247;28;20049;-52
2021/10/06 02:06:55;;;;;;;4.32;0.80;;;;;;;;;;5032815;28;20064;-52
2021/10/06 02:09:21;;;;;;;1.33;0.75;;;;;;;;;;5033243;28;20082;-52
2021/10/06 02:11:47;;;;;;;0.40;0.40;;;;;;;;;;5032778;28;20032;-53
2021/10/06 02:14:14;;;;;;;1.02;0.93;;;;;;;;;;5032133;28;20042;-53
2021/10/06 02:16:40;;;;;;;1.20;0.70;;;;;;;;;;5032957;28;20072;-52
2021/10/06 02:19:07;;;;;;;0.80;0.70;;;;;;;;;;5032996;28;20092;-52
2021/10/06 02:21:33;;;;;;;0.90;0.80;;;;;;;;;;5032817;28;20025;-52
2021/10/06 02:23:59;;;;;;;0.75;0.60;;;;;;;;;;5032461;28;20025;-52
2021/10/06 02:26:25;;;;;;;0.63;0.63;;;;;;;;;;5032342;28;20279;-52
2021/10/06 02:28:51;;;;;;;2.50;0.95;;;;;;;;;;5032794;28;20041;-52
2021/10/06 02:31:17;;;;;;;1.15;0.73;;;;;;;;;;5032639;28;20034;-52
2021/10/06 02:33:43;;;;;;;1.88;1.02;;;;;;;;;;5031857;28;20029;-52
2021/10/06 02:36:09;;;;;;;1.30;0.60;;;;;;;;;;5032744;28;20108;-52
2021/10/06 02:38:35;;;;;;;1.30;0.63;;;;;;;;;;5032823;28;20452;-52
2021/10/06 02:41:01;;;;;;;1.23;0.70;;;;;;;;;;5032410;28;20115;-52
2021/10/06 02:43:27;;;;;;;1.00;1.00;;;;;;;;;;5031399;28;20551;-52
2021/10/06 02:45:53;;;;;;;2.55;0.70;;;;;;;;;;5025945;28;20028;-52
2021/10/06 02:48:21;;;;;;;1.52;0.75;;;;;;;;;;5032279;28;20538;-52
2021/10/06 02:50:47;;;;;;;2.65;0.50;;;;;;;;;;5032472;28;20029;-52
2021/10/06 02:53:13;;;;;;;1.02;0.60;;;;;;;;;;5032591;28;20026;-52
2021/10/06 02:55:39;;;;;;;0.55;0.40;;;;;;;;;;5034205;28;20034;-52
2021/10/06 02:58:05;;;;;;;1.45;0.85;;;;;;;;;;5036191;28;20032;-52
2021/10/06 03:00:31;;;;;;;0.63;0.63;;;;;;;;;;5036186;28;20026;-52
2021/10/06 03:02:57;;;;;;;0.60;0.60;;;;;;;;;;5036425;28;20466;-53
2021/10/06 03:05:23;;;;;;;1.27;0.70;;;;;;;;;;5035415;28;20118;-52
2021/10/06 03:07:49;;;;;;;1.80;0.75;;;;;;;;;;5036563;28;20018;-52
2021/10/06 03:10:15;;;;;;;0.40;0.40;;;;;;;;;;5035889;28;20022;-53
2021/10/06 03:12:41;;;;;;;4.55;0.50;;;;;;;;;;5035642;28;20371;-52
2021/10/06 03:15:08;;;;;;;3.00;0.63;;;;;;;;;;5034993;28;20021;-53
2021/10/06 03:17:34;;;;;;;3.67;0.98;;;;;;;;;;5036322;28;20033;-53
2021/10/06 03:20:00;;;;;;;3.42;0.40;;;;;;;;;;5036032;28;20033;-52
2021/10/06 03:22:26;;;;;;;0.93;0.52;;;;;;;;;;5036002;28;20462;-52
2021/10/06 03:24:52;;;;;;;1.13;0.65;;;;;;;;;;5034973;28;20030;-52
2021/10/06 03:27:18;;;;;;;1.55;0.85;;;;;;;;;;5035524;28;20115;-53
2021/10/06 03:29:45;;;;;;;4.65;0.80;;;;;;;;;;5035607;28;20030;-52
2021/10/06 03:32:11;;;;;;;0.88;0.60;;;;;;;;;;5036165;28;20018;-53
2021/10/06 03:34:37;;;;;;;3.35;0.73;;;;;;;;;;5035155;28;20044;-52
2021/10/06 03:37:03;;;;;;;5.03;1.15;;;;;;;;;;5035184;28;20021;-53
2021/10/06 03:39:29;;;;;;;5.18;0.73;;;;;;;;;;5035724;28;20026;-53
2021/10/06 03:41:55;;;;;;;1.25;0.80;;;;;;;;;;5034098;28;20032;-53
2021/10/06 03:44:21;;;;;;;0.60;0.60;;;;;;;;;;5035123;28;20021;-52
2021/10/06 03:46:47;;;;;;;6.18;0.68;;;;;;;;;;5035546;28;20355;-52
2021/10/06 03:49:13;;;;;;;0.63;0.63;;;;;;;;;;5035359;28;20025;-52
2021/10/06 03:51:39;;;;;;;1.20;0.88;;;;;;;;;;5035809;28;20032;-53
2021/10/06 03:54:05;;;;;;;1.02;0.60;;;;;;;;;;5034479;28;20037;-52
2021/10/06 03:56:31;;;;;;;0.82;0.50;;;;;;;;;;5035094;28;20021;-53
2021/10/06 03:58:57;;;;;;;0.77;0.73;;;;;;;;;;5035096;28;20033;-53
2021/10/06 04:01:23;;;;;;;2.63;0.85;;;;;;;;;;5035237;28;20036;-52
2021/10/06 04:03:49;;;;;;;2.03;0.73;;;;;;;;;;5034213;28;20404;-52
2021/10/06 04:06:15;;;;;;;2.83;0.60;;;;;;;;;;5035117;28;20029;-52
2021/10/06 04:08:41;;;;;;;2.45;0.75;;;;;;;;;;5034849;28;20128;-53
2021/10/06 04:11:07;;;;;;;2.22;0.73;;;;;;;;;;5034723;28;20437;-53
2021/10/06 04:13:33;;;;;;;0.63;0.63;;;;;;;;;;5032977;28;20036;-53
2021/10/06 04:15:59;;;;;;;0.80;0.70;;;;;;;;;;5034778;28;20029;-52
2021/10/06 04:18:25;;;;;;;0.70;0.70;;;;;;;;;;5035087;28;20354;-52
2021/10/06 04:20:51;;;;;;;2.03;0.93;;;;;;;;;;5034496;28;20034;-52
2021/10/06 04:23:17;;;;;;;0.60;0.60;;;;;;;;;;5035399;28;20020;-53
2021/10/06 04:25:43;;;;;;;2.75;0.75;;;;;;;;;;5034101;28;20336;-53
2021/10/06 04:28:09;;;;;;;1.00;0.60;;;;;;;;;;5034568;28;20042;-53
2021/10/06 04:30:35;;;;;;;0.75;0.60;;;;;;;;;;5034290;28;20057;-52
2021/10/06 04:33:01;;;;;;;0.65;0.65;;;;;;;;;;5034407;28;20458;-52
2021/10/06 04:35:28;;;;;;;0.73;0.60;;;;;;;;;;5033828;28;20348;-53
2021/10/06 04:37:54;;;;;;;0.80;0.75;;;;;;;;;;5034826;28;20030;-52
2021/10/06 04:40:20;;;;;;;1.15;1.05;;;;;;;;;;5034763;28;20026;-53
2021/10/06 04:42:46;;;;;;;0.75;0.63;;;;;;;;;;5033958;28;20025;-53
2021/10/06 04:45:13;;;;;;;5.80;1.08;;;;;;;;;;5033889;28;20029;-52
2021/10/06 04:47:39;;;;;;;0.98;0.60;;;;;;;;;;5034385;28;20029;-52
2021/10/06 04:50:05;;;;;;;0.60;0.60;;;;;;;;;;5034243;28;20032;-52
2021/10/06 04:52:31;;;;;;;1.95;0.73;;;;;;;;;;5034112;28;20021;-53
2021/10/06 04:54:57;;;;;;;1.08;0.90;;;;;;;;;;5033425;28;20171;-52
2021/10/06 04:57:23;;;;;;;1.65;0.90;;;;;;;;;;5034152;28;20022;-53
2021/10/06 04:59:49;;;;;;;3.20;1.10;;;;;;;;;;5033821;28;20026;-52
2021/10/06 05:02:15;;;;;;;3.63;0.65;;;;;;;;;;5033866;28;20483;-53
2021/10/06 05:04:41;;;;;;;1.00;0.73;;;;;;;;;;5033572;28;20025;-52
2021/10/06 05:07:07;;;;;;;1.00;0.82;;;;;;;;;;5034423;28;20025;-52
2021/10/06 05:09:33;;;;;;;0.70;0.70;;;;;;;;;;5034459;28;20030;-52
2021/10/06 05:11:59;;;;;;;1.02;0.82;;;;;;;;;;5033762;28;20045;-53
2021/10/06 05:14:27;;;;;;;2.95;0.70;;;;;;;;;;5032977;28;20447;-52
2021/10/06 05:16:53;;;;;;;1.38;0.77;;;;;;;;;;5033133;28;20049;-52
2021/10/06 05:19:20;;;;;;;1.17;0.63;;;;;;;;;;5033536;28;20059;-52
2021/10/06 05:21:46;;;;;;;0.52;0.52;;;;;;;;;;5031822;28;20363;-52
2021/10/06 05:24:12;;;;;;;0.50;0.50;;;;;;;;;;5033406;28;20026;-53
2021/10/06 05:26:38;;;;;;;0.77;0.60;;;;;;;;;;5033441;28;20457;-52
2021/10/06 05:29:04;;;;;;;0.85;0.60;;;;;;;;;;5033003;28;20034;-52
2021/10/06 05:31:30;;;;;;;3.40;1.50;;;;;;;;;;5033391;28;20025;-52
2021/10/06 05:33:56;;;;;;;1.15;0.80;;;;;;;;;;5032754;28;20037;-52
2021/10/06 05:36:23;;;;;;;0.63;0.63;;;;;;;;;;5033374;28;20116;-52
2021/10/06 05:38:49;;;;;;;3.83;0.93;;;;;;;;;;5033578;28;20030;-52
2021/10/06 05:41:15;;;;;;;1.35;0.90;;;;;;;;;;5033269;28;20351;-52
2021/10/06 05:43:41;;;;;;;3.92;1.10;;;;;;;;;;5032202;28;20336;-52
2021/10/06 05:46:07;;;;;;;3.38;0.82;;;;;;;;;;5033500;28;20025;-52
2021/10/06 05:48:33;;;;;;;2.13;0.75;;;;;;;;;;5033098;28;20028;-52
2021/10/06 05:50:59;;;;;;;2.38;0.65;;;;;;;;;;5033541;28;20022;-52
2021/10/06 05:53:26;;;;;;;1.55;0.73;;;;;;;;;;5033182;28;20462;-52
2021/10/06 05:55:52;;;;;;;1.92;0.70;;;;;;;;;;5032979;28;20036;-52
2021/10/06 05:58:19;;;;;;;1.80;1.02;;;;;;;;;;5032736;28;20026;-52
2021/10/06 06:00:45;;;;;;;0.77;0.77;;;;;;;;;;5032897;28;20439;-52
2021/10/06 06:03:11;;;;;;;0.60;0.60;;;;;;;;;;5033241;28;20059;-52
2021/10/06 06:05:40;;;;;;;6.25;0.80;;;;;;;;;;5032280;28;20451;-52
2021/10/06 06:08:07;;;;;;;1.38;0.82;;;;;;;;;;5032825;28;20033;-52
2021/10/06 06:10:33;;;;;;;0.63;0.57;;;;;;;;;;5032708;28;20436;-52
2021/10/06 06:12:59;;;;;;;2.13;0.80;;;;;;;;;;5033014;28;20040;-52
2021/10/06 06:15:25;;;;;;;0.73;0.73;;;;;;;;;;5032009;28;20033;-53
2021/10/06 06:17:51;;;;;;;3.67;0.98;;;;;;;;;;5032676;28;20017;-53
2021/10/06 06:20:23;;;;;;;1.05;0.90;;;;;;;;;;5032693;28;20444;-53
2021/10/06 06:22:50;;;;;;;3.13;0.93;;;;;;;;;;5030819;28;20037;-52
2021/10/06 06:25:16;;;;;;;0.77;0.77;;;;;;;;;;5032212;28;20018;-52
2021/10/06 06:27:42;;;;;;;2.65;1.10;;;;;;;;;;5032780;28;20044;-52
2021/10/06 06:30:09;;;;;;;1.73;0.93;;;;;;;;;;5034374;28;20443;-52
2021/10/06 06:32:35;;;;;;;1.25;0.80;;;;;;;;;;5036862;28;20040;-53
2021/10/06 06:35:01;;;;;;;2.85;0.85;;;;;;;;;;5035897;28;20043;-52
2021/10/06 06:37:27;;;;;;;0.75;0.75;;;;;;;;;;5036923;28;20110;-52
2021/10/06 06:39:53;;;;;;;1.08;1.00;;;;;;;;;;5037034;28;20060;-52
2021/10/06 06:42:19;;;;;;;0.77;0.77;;;;;;;;;;5036856;28;20045;-52
2021/10/06 06:44:45;;;;;;;0.50;0.50;;;;;;;;;;5035999;28;20026;-52
2021/10/06 06:47:11;;;;;;;0.43;0.43;;;;;;;;;;5036320;28;20414;-52
2021/10/06 06:49:37;;;;;;;0.50;0.50;;;;;;;;;;5036976;28;20025;-52
2021/10/06 06:52:03;;;;;;;0.75;0.75;;;;;;;;;;5036376;28;20084;-52
2021/10/06 06:54:30;;;;;;;0.68;0.63;;;;;;;;;;5036011;28;20041;-52
2021/10/06 06:56:56;;;;;;;1.48;0.98;;;;;;;;;;5036199;28;20509;-52
2021/10/06 06:59:22;;;;;;;0.80;0.80;;;;;;;;;;5036694;28;20033;-52
2021/10/06 07:01:48;;;;;;;1.30;1.20;;;;;;;;;;5036272;28;20029;-52
2021/10/06 07:04:14;;;;;;;0.70;0.70;;;;;;;;;;5035757;28;20087;-52
2021/10/06 07:06:40;;;;;;;1.30;0.80;;;;;;;;;;5035994;28;20025;-52
2021/10/06 07:09:07;;;;;;;1.30;0.80;;;;;;;;;;5036586;28;20029;-53
2021/10/06 07:11:33;;;;;;;1.30;0.65;;;;;;;;;;5036380;28;20077;-53
2021/10/06 07:13:59;;;;;;;0.93;0.70;;;;;;;;;;5035272;28;20038;-52
2021/10/06 07:16:25;;;;;;;0.82;0.73;;;;;;;;;;5036093;28;20033;-52
2021/10/06 07:18:52;;;;;;;1.27;0.77;;;;;;;;;;5035546;28;20443;-52
2021/10/06 07:21:18;;;;;;;1.55;1.10;;;;;;;;;;5034101;28;20439;-52
2021/10/06 07:23:44;;;;;;;0.82;0.73;;;;;;;;;;5035453;28;20108;-52
2021/10/06 07:26:11;;;;;;;0.88;0.70;;;;;;;;;;5036162;28;20160;-52
2021/10/06 07:28:37;;;;;;;1.98;0.73;;;;;;;;;;5035267;28;20041;-53
2021/10/06 07:31:03;;;;;;;2.25;0.73;;;;;;;;;;5035391;28;20155;-53
2021/10/06 07:33:29;;;;;;;1.15;0.80;;;;;;;;;;5035128;28;20045;-52
2021/10/06 07:35:55;;;;;;;1.10;0.80;;;;;;;;;;5035744;28;20017;-52
2021/10/06 07:38:21;;;;;;;3.65;1.13;;;;;;;;;;5035709;28;20052;-53
2021/10/06 07:40:47;;;;;;;1.25;0.80;;;;;;;;;;5035117;28;20033;-52
2021/10/06 07:43:13;;;;;;;3.33;1.20;;;;;;;;;;5035420;28;20433;-52
2021/10/06 07:45:39;;;;;;;1.23;0.90;;;;;;;;;;5034869;28;20028;-52
2021/10/06 07:48:06;;;;;;;1.75;0.70;;;;;;;;;;5035349;28;20052;-53
2021/10/06 07:50:32;;;;;;;2.97;1.25;;;;;;;;;;5035570;28;20025;-53
2021/10/06 07:52:58;;;;;;;0.45;0.45;;;;;;;;;;5035195;28;20071;-53
2021/10/06 07:55:24;;;;;;;1.90;0.80;;;;;;;;;;5034840;28;20033;-52
2021/10/06 07:57:50;;;;;;;0.85;0.70;;;;;;;;;;5035426;28;20041;-52
2021/10/06 08:00:17;;;;;;;4.32;0.70;;;;;;;;;;5034904;28;20083;-52
2021/10/06 08:02:43;;;;;;;0.55;0.55;;;;;;;;;;5034841;28;20029;-52
2021/10/06 08:05:09;;;;;;;1.13;0.85;;;;;;;;;;5034498;28;20025;-53
2021/10/06 08:07:35;;;;;;;1.38;0.80;;;;;;;;;;5035235;28;20520;-52
2021/10/06 08:10:01;;;;;;;3.17;0.80;;;;;;;;;;5034849;28;20390;-52
2021/10/06 08:12:27;;;;;;;2.70;0.93;;;;;;;;;;5035225;28;20025;-53
2021/10/06 08:14:53;;;;;;;0.57;0.57;;;;;;;;;;5033335;28;20052;-52
2021/10/06 08:17:19;;;;;;;1.00;0.90;;;;;;;;;;5034994;28;20521;-52
2021/10/06 08:19:46;;;;;;;5.05;1.15;;;;;;;;;;5034479;28;20060;-52
2021/10/06 08:22:13;;;;;;;2.47;0.60;;;;;;;;;;5033281;28;20470;-52
2021/10/06 08:24:39;;;;;;;4.47;1.27;;;;;;;;;;5041054;28;20506;-52
2021/10/06 08:27:05;;;;;;;0.60;0.60;;;;;;;;;;5051105;28;20025;-52
2021/10/06 08:29:31;;;;;;;3.50;0.90;;;;;;;;;;5054388;28;20128;-52
2021/10/06 08:31:57;;;;;;;1.88;1.00;;;;;;;;;;5047826;28;20049;-52
2021/10/06 08:34:23;;;;;;;2.28;1.23;;;;;;;;;;5033559;28;20439;-52
2021/10/06 08:36:49;;;;;;;0.40;0.40;;;;;;;;;;5034679;28;20021;-52
2021/10/06 08:39:15;;;;;;;3.20;1.00;;;;;;;;;;5034214;28;20053;-52
2021/10/06 08:41:41;;;;;;;0.52;0.52;;;;;;;;;;5034282;28;20091;-52
2021/10/06 08:44:07;;;;;;;1.95;0.88;;;;;;;;;;5033993;28;20079;-52
2021/10/06 08:46:35;;;;;;;1.38;0.63;;;;;;;;;;5034379;28;20113;-52
2021/10/06 08:49:01;;;;;;;2.85;0.73;;;;;;;;;;5034289;28;20030;-52
2021/10/06 08:51:27;;;;;;;0.60;0.60;;;;;;;;;;5034108;28;20376;-52
2021/10/06 08:53:54;;;;;;;8.98;0.63;;;;;;;;;;5032683;28;20099;-52
2021/10/06 08:56:21;;;;;;;1.80;0.60;;;;;;;;;;5034298;28;20508;-52
2021/10/06 08:58:47;;;;;;;0.75;0.63;;;;;;;;;;5033940;28;20060;-52
2021/10/06 09:01:23;;;;;;;4.80;0.65;;;;;;;;;;5033982;28;20026;-52
2021/10/06 09:03:56;;;;;;;1.77;0.60;;;;;;;;;;5033400;28;20026;-52
2021/10/06 09:06:30;;;;;;;5.90;0.77;;;;;;;;;;5033976;28;20018;-52
2021/10/06 09:08:56;;;;;;;0.60;0.60;;;;;;;;;;5034059;28;20030;-53
2021/10/06 09:11:27;;;;;;;4.47;1.08;;;;;;;;;;5033622;28;20040;-52
2021/10/06 09:13:53;;;;;;;1.42;0.75;;;;;;;;;;5033013;28;20041;-53
2021/10/06 09:16:20;;;;;;;2.75;0.73;;;;;;;;;;5033723;28;20025;-52
2021/10/06 09:18:46;;;;;;;0.40;0.40;;;;;;;;;;5033493;28;20041;-52
2021/10/06 09:21:12;;;;;;;1.98;0.88;;;;;;;;;;5031809;28;20083;-52
2021/10/06 09:23:39;;;;;;;0.50;0.47;;;;;;;;;;5033099;28;20024;-52
2021/10/06 09:26:06;;;;;;;0.25;0.25;;;;;;;;;;5034097;28;20044;-52
2021/10/06 09:28:32;;;;;;;1.38;0.77;;;;;;;;;;5033957;28;20030;-53
2021/10/06 09:31:01;;;;;;;2.15;1.00;;;;;;;;;;5033138;28;20030;-52
2021/10/06 09:33:41;;;;;;;0.90;0.70;;;;;;;;;;5033250;28;20121;-52
2021/10/06 09:36:11;;;;;;;2.05;0.55;;;;;;;;;;5033491;28;20447;-53
2021/10/06 09:38:48;;;;;;;2.90;0.80;;;;;;;;;;5033726;28;20083;-52
2021/10/06 09:41:32;;;;;;;2.38;0.60;;;;;;;;;;5033446;28;20021;-52
2021/10/06 09:44:01;;;;;;;1.45;0.47;;;;;;;;;;5032259;28;20393;-52
2021/10/06 09:46:50;;;;;;;2.30;0.85;;;;;;;;;;5033255;28;20075;-52
2021/10/06 09:49:20;;;;;;;0.98;0.50;;;;;;;;;;5030201;28;20053;-53
2021/10/06 09:51:46;;;;;;;0.60;0.50;;;;;;;;;;5032632;28;20358;-53
2021/10/06 09:54:12;;;;;;;2.65;0.90;;;;;;;;;;5032197;28;20038;-52
2021/10/06 09:56:39;;;;;;;0.80;0.70;;;;;;;;;;5033443;28;20022;-52
2021/10/06 09:59:06;;;;;;;1.02;0.85;;;;;;;;;;5033098;28;20025;-52
2021/10/06 10:01:36;;;;;;;1.00;0.70;;;;;;;;;;5033497;28;20305;-52
2021/10/06 10:04:03;;;;;;;0.77;0.70;;;;;;;;;;5031896;28;20064;-53
2021/10/06 10:06:29;;;;;;;0.47;0.35;;;;;;;;;;5032967;28;20048;-52
2021/10/06 10:08:55;;;;;;;0.40;0.40;;;;;;;;;;5032949;28;20447;-52
2021/10/06 10:11:21;;;;;;;1.35;0.80;;;;;;;;;;5033093;28;20133;-52
2021/10/06 10:13:48;;;;;;;0.63;0.40;;;;;;;;;;5032134;28;20021;-52
2021/10/06 10:16:15;;;;;;;0.68;0.68;;;;;;;;;;5032620;28;20034;-52
2021/10/06 10:18:41;;;;;;;0.95;0.85;;;;;;;;;;5032935;28;20025;-52
2021/10/06 10:21:07;;;;;;;0.73;0.68;;;;;;;;;;5030588;28;20060;-52
2021/10/06 10:23:34;;;;;;;1.48;0.60;;;;;;;;;;5032484;28;20037;-52
2021/10/06 10:26:00;;;;;;;1.73;0.80;;;;;;;;;;5033037;28;20026;-52
2021/10/06 10:28:37;;;;;;;1.30;0.65;;;;;;;;;;5032894;28;20358;-53
2021/10/06 10:31:03;;;;;;;0.60;0.60;;;;;;;;;;5032189;28;20101;-52
2021/10/06 10:33:44;;;;;;;3.47;0.65;;;;;;;;;;5032183;28;20033;-52
2021/10/06 10:36:10;;;;;;;;;;;;;;;;;;5033276;28;20178;-53
2021/10/06 10:38:36;;;;;;;1.15;0.70;;;;;;;;;;5032442;28;20003;-52
2021/10/06 10:41:02;;;;;;;0.60;0.60;;;;;;;;;;5032544;28;20477;-52
2021/10/06 10:43:31;;;;;;;2.58;1.08;;;;;;;;;;5032214;28;20025;-52
2021/10/06 10:46:00;;;;;;;1.33;0.60;;;;;;;;;;5032265;28;20029;-52
2021/10/06 10:48:30;;;;;;;2.58;0.50;;;;;;;;;;5032626;28;20522;-52
2021/10/06 10:50:56;;;;;;;2.05;0.60;;;;;;;;;;5032457;28;20053;-52
2021/10/06 10:53:42;;;;;;;2.55;0.60;;;;;;;;;;5032697;28;20057;-52
2021/10/06 10:56:10;;;;;;;4.90;0.80;;;;;;;;;;5032025;28;20521;-52
2021/10/06 10:58:43;;;;;;;0.82;0.55;;;;;;;;;;5032598;28;20455;-52
2021/10/06 11:01:15;;;;;;;0.63;0.47;;;;;;;;;;5032702;28;20076;-53
2021/10/06 11:04:00;;;;;;;1.00;0.50;;;;;;;;;;5031727;28;20105;-52
2021/10/06 11:06:39;;;;;;;0.63;0.50;;;;;;;;;;5031991;28;20087;-52
2021/10/06 11:09:24;;;;;;;0.35;0.35;;;;;;;;;;5032861;28;20029;-52
2021/10/06 11:11:50;;;;;;;1.35;0.40;;;;;;;;;;5032529;28;20056;-52
2021/10/06 11:14:20;;;;;;;1.35;0.95;;;;;;;;;;5031859;28;20455;-52
2021/10/06 11:17:11;;;;;;;1.17;0.50;;;;;;;;;;5034864;28;20081;-53
2021/10/06 11:19:46;;;;;;;1.60;0.77;;;;;;;;;;5036317;28;20105;-53
2021/10/06 11:22:25;;;;;;;5.53;0.52;;;;;;;;;;5033887;28;20470;-52
2021/10/06 11:24:51;;;;;;;0.60;0.50;;;;;;;;;;5035222;28;20071;-52
2021/10/06 11:27:18;;;;;;;0.52;0.52;;;;;;;;;;5035806;28;20376;-53
2021/10/06 11:29:45;;;;;;;3.58;0.70;;;;;;;;;;5035792;28;20447;-52
2021/10/06 11:32:11;;;;;;;0.50;0.50;;;;;;;;;;5035761;28;20056;-52
2021/10/06 11:34:47;;;;;;;1.33;0.63;;;;;;;;;;5035050;28;20451;-52
2021/10/06 11:37:20;;;;;;;0.82;0.70;;;;;;;;;;5035296;28;20412;-52
2021/10/06 11:39:46;;;;;;;3.03;0.45;;;;;;;;;;5035585;28;20025;-53
2021/10/06 11:42:12;;;;;;;8.95;1.00;;;;;;;;;;5035654;28;20079;-52
2021/10/06 11:44:39;;;;;;;3.85;0.80;;;;;;;;;;5035154;28;20021;-52
2021/10/06 11:47:06;;;;;;;0.43;0.40;;;;;;;;;;5035589;28;20401;-52
2021/10/06 11:49:34;;;;;;;1.48;0.50;;;;;;;;;;5035547;28;20079;-52
2021/10/06 11:52:00;;;;;;;0.73;0.50;;;;;;;;;;5035330;28;20059;-52
2021/10/06 11:54:26;;;;;;;2.78;1.25;;;;;;;;;;5034772;28;20052;-52
2021/10/06 11:56:53;;;;;;;0.50;0.50;;;;;;;;;;5035164;28;20032;-52
2021/10/06 11:59:21;;;;;;;1.42;0.70;;;;;;;;;;5035590;28;20030;-52
2021/10/06 12:01:54;;;;;;;1.67;0.55;;;;;;;;;;5035049;28;20107;-52
2021/10/06 12:04:22;;;;;;;0.70;0.68;;;;;;;;;;5034423;28;20026;-52
2021/10/06 12:06:50;;;;;;;0.52;0.52;;;;;;;;;;5035326;28;20051;-52
2021/10/06 12:09:16;;;;;;;1.17;0.70;;;;;;;;;;5035286;28;20325;-52
2021/10/06 12:11:46;;;;;;;1.08;0.70;;;;;;;;;;5034921;28;20366;-52
2021/10/06 12:14:18;;;;;;;3.15;0.60;;;;;;;;;;5034345;28;20043;-52
2021/10/06 12:16:44;;;;;;;1.00;0.60;;;;;;;;;;5034542;28;20032;-52
2021/10/06 12:19:10;;;;;;;0.63;0.60;;;;;;;;;;5034920;28;20825;-52
2021/10/06 12:21:36;;;;;;;1.08;0.63;;;;;;;;;;5033931;28;20109;-53
2021/10/06 12:24:03;;;;;;;4.68;0.85;;;;;;;;;;5034219;28;20029;-53
2021/10/06 12:26:30;;;;;;;0.55;0.45;;;;;;;;;;5034935;28;20030;-52
2021/10/06 12:28:57;;;;;;;2.03;0.70;;;;;;;;;;5034419;28;20095;-52
2021/10/06 12:31:27;;;;;;;1.98;0.50;;;;;;;;;;5034655;28;20033;-52
2021/10/06 12:34:12;;;;;;;0.60;0.60;;;;;;;;;;5034195;28;20037;-52
2021/10/06 12:36:45;;;;;;;0.43;0.43;;;;;;;;;;5034693;28;20091;-53
2021/10/06 12:39:12;;;;;;;0.65;0.60;;;;;;;;;;5035013;28;20409;-52
2021/10/06 12:41:40;;;;;;;1.85;0.90;;;;;;;;;;5034323;28;20029;-52
2021/10/06 12:44:20;;;;;;;1.00;0.52;;;;;;;;;;5034164;28;20029;-52
2021/10/06 12:46:46;;;;;;;2.25;0.68;;;;;;;;;;5034598;28;20104;-53
2021/10/06 12:49:13;;;;;;;0.47;0.47;;;;;;;;;;5034652;28;20336;-52
2021/10/06 12:51:40;;;;;;;0.50;0.50;;;;;;;;;;5034314;28;20022;-52
2021/10/06 12:54:15;;;;;;;0.98;0.57;;;;;;;;;;5033352;28;20038;-52
2021/10/06 12:56:50;;;;;;;1.85;0.80;;;;;;;;;;5034268;28;20048;-52
2021/10/06 12:59:16;;;;;;;2.53;0.52;;;;;;;;;;5034373;28;20116;-53
2021/10/06 13:01:44;;;;;;;2.60;0.47;;;;;;;;;;5033943;28;20447;-52
2021/10/06 13:04:11;;;;;;;0.45;0.45;;;;;;;;;;5033552;28;20032;-53
2021/10/06 13:06:45;;;;;;;1.75;0.50;;;;;;;;;;5034100;28;20032;-53
2021/10/06 13:09:12;;;;;;;1.25;0.82;;;;;;;;;;5033812;28;20029;-52
2021/10/06 13:11:39;;;;;;;0.50;0.50;;;;;;;;;;5034061;28;20022;-52
2021/10/06 13:14:05;;;;;;;1.10;0.50;;;;;;;;;;5033201;28;20371;-52
2021/10/06 13:16:31;;;;;;;0.45;0.45;;;;;;;;;;5041836;28;20032;-52
2021/10/06 13:18:59;;;;;;;0.57;0.50;;;;;;;;;;5069194;28;20339;-53
2021/10/06 13:21:25;;;;;;;3.45;0.75;;;;;;;;;;5056873;28;20029;-52
2021/10/06 13:23:51;;;;;;;0.35;0.35;;;;;;;;;;5065462;28;20043;-52
2021/10/06 13:26:17;;;;;;;0.40;0.40;;;;;;;;;;5048517;28;20020;-52
2021/10/06 13:28:43;;;;;;;0.65;0.65;;;;;;;;;;5041886;28;20111;-52
2021/10/06 13:31:10;;;;;;;1.60;0.57;;;;;;;;;;5045711;28;20036;-52
2021/10/06 13:33:36;;;;;;;0.57;0.50;;;;;;;;;;5043874;28;20394;-52
2021/10/06 13:36:08;;;;;;;0.40;0.40;;;;;;;;;;5047480;28;20072;-52
2021/10/06 13:38:34;;;;;;;0.73;0.65;;;;;;;;;;5046950;28;20438;-52
2021/10/06 13:41:00;;;;;;;0.40;0.40;;;;;;;;;;5068554;28;20021;-52
2021/10/06 13:43:26;;;;;;;0.40;0.40;;;;;;;;;;5060849;28;20346;-52
2021/10/06 13:45:52;;;;;;;2.72;0.40;;;;;;;;;;5073055;28;20044;-52
2021/10/06 13:48:18;;;;;;;1.75;0.82;;;;;;;;;;5073128;28;20085;-52
2021/10/06 13:50:44;;;;;;;0.95;0.73;;;;;;;;;;5072892;28;20029;-52
2021/10/06 13:53:10;;;;;;;4.30;0.60;;;;;;;;;;5073113;28;20059;-53
2021/10/06 13:55:36;;;;;;;1.83;0.52;;;;;;;;;;5072118;28;20028;-52
2021/10/06 13:58:03;;;;;;;1.95;0.50;;;;;;;;;;5073363;28;20027;-52
2021/10/06 14:00:31;;;;;;;4.68;0.95;;;;;;;;;;5071665;28;20078;-53
2021/10/06 14:02:58;;;;;;;1.23;0.60;;;;;;;;;;5073034;28;20051;-52
2021/10/06 14:05:24;;;;;;;0.63;0.45;;;;;;;;;;5072405;28;20044;-52
2021/10/06 14:07:50;;;;;;;3.03;0.50;;;;;;;;;;5072836;28;20075;-52
2021/10/06 14:10:16;;;;;;;1.50;0.60;;;;;;;;;;5073240;28;20047;-52
2021/10/06 14:12:42;;;;;;;0.60;0.60;;;;;;;;;;5072895;28;20426;-53
2021/10/06 14:15:08;;;;;;;0.35;0.35;;;;;;;;;;5065254;28;20355;-52
2021/10/06 14:17:34;;;;;;;4.03;0.50;;;;;;;;;;5032937;28;20097;-52
2021/10/06 14:20:00;;;;;;;0.30;0.30;;;;;;;;;;5033457;28;20518;-52
2021/10/06 14:22:26;;;;;;;1.65;0.50;;;;;;;;;;5032714;28;20021;-52
2021/10/06 14:24:52;;;;;;;3.72;0.73;;;;;;;;;;5046567;28;20082;-52
2021/10/06 14:27:18;;;;;;;0.63;0.50;;;;;;;;;;5052209;28;20028;-52
2021/10/06 14:29:44;;;;;;;0.40;0.40;;;;;;;;;;5052738;28;20582;-53
2021/10/06 14:32:10;;;;;;;1.08;0.60;;;;;;;;;;5052865;28;20034;-52
2021/10/06 14:34:36;;;;;;;0.47;0.47;;;;;;;;;;5051598;28;20044;-53
2021/10/06 14:37:03;;;;;;;1.35;0.50;;;;;;;;;;5052764;28;20021;-52
2021/10/06 14:39:29;;;;;;;0.90;0.82;;;;;;;;;;5052685;28;20033;-52
2021/10/06 14:41:55;;;;;;;0.90;0.70;;;;;;;;;;5053814;28;20029;-52
2021/10/06 14:44:21;;;;;;;0.60;0.60;;;;;;;;;;5045003;28;20352;-52